createdAt,value
2019-05-19T01:58:01.315Z,0.1
2019-05-19T02:00:01.168Z,0.2
2019-05-19T02:01:01.105Z,0.3
2019-05-19T02:03:01.443Z,0.4
2019-05-19T02:04:01.147Z,0.5
2019-05-19T02:06:01.107Z,0.6
2019-05-19T02:08:01.245Z,0.7
2019-05-19T02:10:01.167Z,0.9
2019-05-19T02:11:01.092Z,1.0
2019-05-19T02:12:01.089Z,1.1
2019-05-19T02:13:01.249Z,1.3
2019-05-19T02:15:06.110Z,1.4
2019-05-19T02:16:01.109Z,1.5
2019-05-19T02:17:01.102Z,1.7
2019-05-19T02:18:01.248Z,1.8
2019-05-19T02:19:01.094Z,2.0
2019-05-19T02:20:06.100Z,2.3
2019-05-19T02:21:01.101Z,2.5
2019-05-19T02:22:01.099Z,2.9
2019-05-19T02:23:01.278Z,3.3
2019-05-19T02:24:01.099Z,3.7
2019-05-19T02:25:01.094Z,4.1
2019-05-19T02:26:01.094Z,4.7
2019-05-19T02:27:01.101Z,5.3
2019-05-19T02:28:01.251Z,6.0
2019-05-19T02:29:01.097Z,6.8
2019-05-19T02:30:06.161Z,7.7
2019-05-19T02:31:01.101Z,8.7
2019-05-19T02:32:01.098Z,9.7
2019-05-19T02:33:01.284Z,11.0
2019-05-19T02:34:01.104Z,12.5
2019-05-19T02:35:01.136Z,14.1
2019-05-19T02:36:01.104Z,16.0
2019-05-19T02:37:01.096Z,18.1
2019-05-19T02:38:01.249Z,20.5
2019-05-19T02:39:01.099Z,23.2
2019-05-19T02:40:01.130Z,26.4
2019-05-19T02:41:01.100Z,29.9
2019-05-19T02:42:01.096Z,33.8
2019-05-19T02:43:01.320Z,38.3
2019-05-19T02:44:01.106Z,43.1
2019-05-19T02:45:06.109Z,48.5
2019-05-19T02:46:03.533Z,54.4
2019-05-19T02:47:01.106Z,60.8
2019-05-19T02:48:01.262Z,67.5
2019-05-19T02:49:01.109Z,75.1
2019-05-19T02:50:01.107Z,83.5
2019-05-19T02:51:06.102Z,92.9
2019-05-19T02:52:01.099Z,103.1
2019-05-19T02:53:01.334Z,114.1
2019-05-19T02:54:06.108Z,125.7
2019-05-19T02:55:01.118Z,137.9
2019-05-19T02:56:01.099Z,150.7
2019-05-19T02:57:01.104Z,164.3
2019-05-19T02:58:01.249Z,180.2
2019-05-19T02:59:01.137Z,201.5
2019-05-19T03:00:01.174Z,224.3
2019-05-19T03:01:01.116Z,247.2
2019-05-19T03:02:01.110Z,272.2
2019-05-19T03:03:01.251Z,299.5
2019-05-19T03:04:01.147Z,327.3
2019-05-19T03:05:01.111Z,357.5
2019-05-19T03:06:01.103Z,389.6
2019-05-19T03:07:01.106Z,424.7
2019-05-19T03:09:01.249Z,467.4
2019-05-19T03:10:01.090Z,513.0
2019-05-19T03:11:01.091Z,562.5
2019-05-19T03:12:01.118Z,613.6
2019-05-19T03:13:01.091Z,664.4
2019-05-19T03:14:01.241Z,720.0
2019-05-19T03:15:01.103Z,776.3
2019-05-19T03:16:01.091Z,834.8
2019-05-19T03:17:01.100Z,892.6
2019-05-19T03:18:01.089Z,952.0
2019-05-19T03:19:01.237Z,1013.1
2019-05-19T03:20:01.094Z,1087.1
2019-05-19T03:21:10.250Z,1169.1
2019-05-19T03:22:01.099Z,1244.1
2019-05-19T03:23:01.127Z,1323.5
2019-05-19T03:24:01.249Z,1395.4
2019-05-19T03:25:01.100Z,1475.3
2019-05-19T03:26:01.115Z,1557.0
2019-05-19T03:27:01.111Z,1644.1
2019-05-19T03:28:01.121Z,1741.8
2019-05-19T03:29:01.257Z,1839.2
2019-05-19T03:30:01.111Z,1948.4
2019-05-19T03:31:01.115Z,2049.6
2019-05-19T03:32:01.093Z,2148.8
2019-05-19T03:33:01.271Z,2248.1
2019-05-19T03:34:01.287Z,2346.9
2019-05-19T03:35:01.099Z,2436.3
2019-05-19T03:36:01.096Z,2514.3
2019-05-19T03:37:01.094Z,2602.7
2019-05-19T03:38:01.125Z,2709.8
2019-05-19T03:39:01.240Z,2839.2
2019-05-19T03:40:01.100Z,2976.5
2019-05-19T03:41:01.098Z,3120.4
2019-05-19T03:42:01.099Z,3266.7
2019-05-19T03:43:01.197Z,3411.4
2019-05-19T03:44:01.676Z,3544.6
2019-05-19T03:45:01.102Z,3643.9
2019-05-19T03:46:01.101Z,3733.3
2019-05-19T03:47:01.103Z,3843.1
2019-05-19T03:48:01.130Z,3941.3
2019-05-19T03:49:01.246Z,4060.7
2019-05-19T03:50:01.099Z,4211.9
2019-05-19T03:51:01.099Z,4405.0
2019-05-19T03:52:01.102Z,4628.7
2019-05-19T03:53:01.153Z,4827.3
2019-05-19T03:54:01.251Z,5032.7
2019-05-19T03:55:01.103Z,5184.4
2019-05-19T03:56:01.101Z,5308.4
2019-05-19T03:57:01.106Z,5435.7
2019-05-19T03:58:01.140Z,5547.3
2019-05-19T03:59:01.248Z,5713.7
2019-05-19T04:00:01.106Z,5987.3
2019-05-19T04:01:01.100Z,6275.2
2019-05-19T04:02:01.100Z,6538.3
2019-05-19T04:03:01.138Z,6770.5
2019-05-19T04:04:01.254Z,7006.3
2019-05-19T04:05:01.142Z,7197.7
2019-05-19T04:06:01.105Z,7367.9
2019-05-19T04:07:01.106Z,7548.4
2019-05-19T04:08:01.104Z,7718.2
2019-05-19T04:09:01.312Z,7845.9
2019-05-19T04:10:01.105Z,8002.5
2019-05-19T04:11:01.107Z,8248.4
2019-05-19T04:12:01.106Z,8539.3
2019-05-19T04:13:01.109Z,8963.5
2019-05-19T04:14:01.307Z,9297.9
2019-05-19T04:16:01.099Z,9616.4
2019-05-19T04:17:01.093Z,9900.3
2019-05-19T04:18:01.105Z,10196.1
2019-05-19T04:19:06.100Z,10544.1
2019-05-19T04:20:01.334Z,10773.7
2019-05-19T04:21:01.111Z,10975.1
2019-05-19T04:22:01.098Z,11216.8
2019-05-19T04:23:01.093Z,11493.2
2019-05-19T04:24:01.128Z,11809.7
2019-05-19T04:25:01.249Z,12154.1
2019-05-19T04:26:01.097Z,12451.9
2019-05-19T04:27:01.102Z,12676.4
2019-05-19T04:28:01.108Z,12818.9
2019-05-19T04:29:01.112Z,12971.9
2019-05-19T04:30:01.246Z,13210.8
2019-05-19T04:31:01.111Z,13395.4
2019-05-19T04:32:01.101Z,13680.1
2019-05-19T04:33:01.605Z,14039.8
2019-05-19T04:34:02.089Z,14254.4
2019-05-19T04:35:01.274Z,14456.5
2019-05-19T04:36:01.104Z,14699.8
2019-05-19T04:37:01.100Z,14923.9
2019-05-19T04:38:01.106Z,15145.5
2019-05-19T04:39:01.128Z,15338.7
2019-05-19T04:40:01.250Z,15483.4
2019-05-19T04:41:01.103Z,15694.4
2019-05-19T04:42:01.102Z,16031.1
2019-05-19T04:43:01.103Z,16571.5
2019-05-19T04:44:01.100Z,16830.9
2019-05-19T04:45:01.255Z,17111.3
2019-05-19T04:46:01.103Z,17432.8
2019-05-19T04:47:01.100Z,17668.9
2019-05-19T04:48:01.104Z,17924.9
2019-05-19T04:49:01.104Z,18241.3
2019-05-19T04:50:02.162Z,18762.1
2019-05-19T04:51:01.109Z,19148.4
2019-05-19T04:52:06.385Z,19530.6
2019-05-19T04:53:01.107Z,19911.9
2019-05-19T04:54:01.104Z,20326.9
2019-05-19T04:55:01.311Z,20760.1
2019-05-19T04:56:01.104Z,21167.4
2019-05-19T04:57:01.119Z,21575.8
2019-05-19T04:58:01.105Z,21809.8
2019-05-19T05:00:01.240Z,22028.7
2019-05-19T05:01:01.089Z,22166.1
2019-05-19T05:02:01.135Z,22287.4
2019-05-19T05:03:01.089Z,22678.7
2019-05-19T05:04:01.093Z,22859.7
2019-05-19T05:05:01.539Z,23018.4
2019-05-19T05:06:01.102Z,23150.6
2019-05-19T05:07:01.097Z,23264.9
2019-05-19T05:08:01.098Z,23596.7
2019-05-19T05:09:01.099Z,24099.9
2019-05-19T05:10:01.332Z,24490.5
2019-05-19T05:11:01.098Z,24822.1
2019-05-19T05:12:01.098Z,25144.1
2019-05-19T05:13:01.102Z,25220.4
2019-05-19T05:14:01.277Z,25393.5
2019-05-19T05:15:01.275Z,25920.3
2019-05-19T05:16:01.100Z,26466.3
2019-05-19T05:17:01.099Z,26824.9
2019-05-19T05:18:01.225Z,26931.1
2019-05-19T05:19:01.100Z,27212.5
2019-05-19T05:20:01.276Z,27538.3
2019-05-19T05:21:01.095Z,27724.9
2019-05-19T05:22:01.099Z,28067.6
2019-05-19T05:23:01.098Z,28092.9
2019-05-19T05:24:01.103Z,27817.5
2019-05-19T05:25:02.759Z,27524.9
2019-05-19T05:26:01.094Z,27216.7
2019-05-19T05:27:01.094Z,26972.1
2019-05-19T05:28:01.098Z,26843.1
2019-05-19T05:29:01.098Z,26773.1
2019-05-19T05:30:01.274Z,26661.5
2019-05-19T05:31:01.131Z,26675.1
2019-05-19T05:32:01.098Z,27110.7
2019-05-19T05:33:01.105Z,27528.1
2019-05-19T05:34:01.107Z,27941.9
2019-05-19T05:35:01.267Z,28275.6
2019-05-19T05:36:06.108Z,28660.3
2019-05-19T05:37:01.103Z,29157.1
2019-05-19T05:38:01.104Z,29884.1
2019-05-19T05:39:01.112Z,30760.4
2019-05-19T05:40:01.259Z,31730.7
2019-05-19T05:41:06.108Z,32779.9
2019-05-19T05:42:01.108Z,33699.1
2019-05-19T05:43:01.122Z,34430.5
2019-05-19T05:44:01.108Z,35111.7
2019-05-19T05:45:01.261Z,35574.1
2019-05-19T05:46:06.114Z,35786.0
2019-05-19T05:47:01.106Z,35832.0
2019-05-19T05:48:01.112Z,36276.7
2019-05-19T05:49:01.106Z,36588.0
2019-05-19T05:50:01.252Z,37059.9
2019-05-19T05:51:01.132Z,37585.9
2019-05-19T05:52:01.355Z,37746.4
2019-05-19T05:53:01.111Z,37682.1
2019-05-19T05:54:01.104Z,37556.0
2019-05-19T05:55:01.265Z,37524.8
2019-05-19T05:56:06.106Z,37640.3
2019-05-19T05:58:01.091Z,37661.3
2019-05-19T05:59:01.090Z,37737.9
2019-05-19T06:00:01.261Z,37864.7
2019-05-19T06:01:01.116Z,37937.5
2019-05-19T06:02:01.095Z,38347.7
2019-05-19T06:03:01.118Z,38976.1
2019-05-19T06:04:01.101Z,39340.3
2019-05-19T06:05:01.246Z,40028.6
2019-05-19T06:06:01.120Z,40802.5
2019-05-19T06:07:01.097Z,41486.3
2019-05-19T06:08:01.097Z,42317.7
2019-05-19T06:09:01.095Z,43067.2
2019-05-19T06:10:01.243Z,43923.5
2019-05-19T06:11:01.122Z,45107.3
2019-05-19T06:12:01.095Z,46034.3
2019-05-19T06:13:01.102Z,47236.4
2019-05-19T06:14:01.094Z,48306.3
2019-05-19T06:15:01.691Z,49333.0
2019-05-19T06:16:01.101Z,50618.4
2019-05-19T06:17:01.103Z,51627.6
2019-05-19T06:18:01.111Z,52303.5
2019-05-19T06:19:01.106Z,53068.5
2019-05-19T06:20:01.352Z,53495.6
2019-05-19T06:21:01.097Z,53631.0
2019-05-19T06:22:01.104Z,53825.9
2019-05-19T06:23:01.101Z,54011.5
2019-05-19T06:24:01.098Z,54324.7
2019-05-19T06:25:01.282Z,54296.3
2019-05-19T06:26:01.100Z,53837.4
2019-05-19T06:27:01.102Z,53721.0
2019-05-19T06:28:01.098Z,53616.7
2019-05-19T06:29:01.103Z,53975.5
2019-05-19T06:30:01.284Z,54084.0
2019-05-19T06:31:01.104Z,54363.5
2019-05-19T06:32:01.103Z,54861.0
2019-05-19T06:33:01.116Z,55333.7
2019-05-19T06:34:01.106Z,55718.0
2019-05-19T06:35:01.325Z,56151.5
2019-05-19T06:36:01.132Z,56920.2
2019-05-19T06:37:02.317Z,57678.0
2019-05-19T06:38:01.104Z,58541.5
2019-05-19T06:39:01.122Z,59415.9
2019-05-19T06:40:01.285Z,60488.5
2019-05-19T06:41:01.108Z,61568.1
2019-05-19T06:42:01.105Z,62425.1
2019-05-19T06:43:01.107Z,63176.9
2019-05-19T06:44:03.303Z,63731.1
2019-05-19T06:45:01.345Z,64417.2
2019-05-19T06:46:01.105Z,64792.5
2019-05-19T06:48:01.092Z,65008.1
2019-05-19T06:49:01.091Z,65248.5
2019-05-19T06:50:01.238Z,65373.5
2019-05-19T06:51:01.214Z,65535.0
2019-05-19T07:00:01.107Z,65535.0
2019-05-19T07:15:01.110Z,65535.0
2019-05-19T07:30:01.253Z,65535.0
2019-05-19T07:45:01.103Z,65535.0
2019-05-19T08:00:01.336Z,65535.0
2019-05-19T08:15:01.102Z,65535.0
2019-05-19T08:30:01.097Z,65535.0
2019-05-19T08:45:01.459Z,65535.0
2019-05-19T09:00:01.360Z,65535.0
2019-05-19T09:15:02.123Z,65535.0
2019-05-19T09:30:01.241Z,65535.0
2019-05-19T09:45:01.379Z,65535.0
2019-05-19T10:00:01.268Z,65535.0
2019-05-19T10:15:02.223Z,65535.0
2019-05-19T10:30:01.287Z,65535.0
2019-05-19T10:45:01.313Z,65535.0
2019-05-19T11:00:01.299Z,65535.0
2019-05-19T11:15:01.576Z,65535.0
2019-05-19T11:30:01.304Z,65535.0
2019-05-19T11:45:01.410Z,65535.0
2019-05-19T12:00:01.442Z,65535.0
2019-05-19T12:15:01.390Z,65535.0
2019-05-19T12:30:01.266Z,65535.0
2019-05-19T12:45:01.485Z,65535.0
2019-05-19T13:00:01.248Z,65535.0
2019-05-19T13:15:01.388Z,65535.0
2019-05-19T13:30:01.318Z,65535.0
2019-05-19T13:45:01.301Z,65535.0
2019-05-19T14:00:01.314Z,65535.0
2019-05-19T14:15:04.093Z,65535.0
2019-05-19T14:30:01.245Z,65535.0
2019-05-19T14:45:02.741Z,65535.0
2019-05-19T15:00:01.250Z,65535.0
2019-05-19T15:15:01.386Z,65535.0
2019-05-19T15:30:12.164Z,65535.0
2019-05-19T15:45:01.399Z,65535.0
2019-05-19T16:00:01.319Z,65535.0
2019-05-19T16:15:01.518Z,65535.0
2019-05-19T16:30:03.203Z,65535.0
2019-05-19T16:43:02.365Z,65528.5
2019-05-19T16:45:01.135Z,65522.9
2019-05-19T16:47:01.107Z,65522.6
2019-05-19T16:48:01.257Z,65498.5
2019-05-19T16:49:01.134Z,65437.2
2019-05-19T16:50:01.097Z,65336.3
2019-05-19T16:51:01.103Z,65189.8
2019-05-19T16:52:01.101Z,65002.9
2019-05-19T16:53:01.252Z,64742.6
2019-05-19T16:54:01.127Z,64425.2
2019-05-19T16:55:01.101Z,64073.3
2019-05-19T16:56:01.112Z,63677.3
2019-05-19T16:58:01.236Z,63251.1
2019-05-19T16:59:01.115Z,62825.3
2019-05-19T17:00:01.099Z,62385.2
2019-05-19T17:01:01.089Z,61944.6
2019-05-19T17:02:01.086Z,61482.2
2019-05-19T17:03:01.235Z,60965.5
2019-05-19T17:04:01.111Z,60394.7
2019-05-19T17:05:01.091Z,59788.2
2019-05-19T17:06:01.091Z,59155.7
2019-05-19T17:07:03.039Z,58535.1
2019-05-19T17:08:01.243Z,58014.1
2019-05-19T17:09:01.122Z,57544.6
2019-05-19T17:10:01.091Z,57074.0
2019-05-19T17:11:01.098Z,56618.3
2019-05-19T17:12:02.655Z,56217.5
2019-05-19T17:13:01.237Z,55853.2
2019-05-19T17:14:01.090Z,55487.2
2019-05-19T17:15:01.094Z,55115.3
2019-05-19T17:16:01.090Z,54756.4
2019-05-19T17:17:01.142Z,54420.9
2019-05-19T17:18:01.245Z,54137.1
2019-05-19T17:19:01.092Z,53899.9
2019-05-19T17:20:01.089Z,53705.7
2019-05-19T17:21:01.105Z,53547.7
2019-05-19T17:22:01.089Z,53418.4
2019-05-19T17:23:02.204Z,53226.1
2019-05-19T17:24:01.123Z,53029.5
2019-05-19T17:25:01.090Z,52872.1
2019-05-19T17:26:01.092Z,52691.6
2019-05-19T17:27:01.097Z,52479.5
2019-05-19T17:28:01.240Z,52328.0
2019-05-19T17:29:01.262Z,52242.5
2019-05-19T17:30:01.093Z,52014.2
2019-05-19T17:31:01.099Z,51721.3
2019-05-19T17:32:05.764Z,51398.3
2019-05-19T17:33:01.841Z,51043.5
2019-05-19T17:34:01.159Z,50684.2
2019-05-19T17:35:01.124Z,50304.1
2019-05-19T17:36:01.101Z,49932.0
2019-05-19T17:37:01.101Z,49551.4
2019-05-19T17:38:01.309Z,49092.3
2019-05-19T17:39:01.101Z,48580.2
2019-05-19T17:40:01.132Z,48052.3
2019-05-19T17:41:01.098Z,47575.3
2019-05-19T17:42:01.106Z,47104.9
2019-05-19T17:43:01.277Z,46564.8
2019-05-19T17:44:01.099Z,45961.5
2019-05-19T17:45:01.135Z,45474.0
2019-05-19T17:46:01.100Z,45010.1
2019-05-19T17:47:01.100Z,44562.8
2019-05-19T17:48:09.430Z,44074.4
2019-05-19T17:49:01.105Z,43600.3
2019-05-19T17:50:06.113Z,43131.5
2019-05-19T17:51:01.101Z,42594.2
2019-05-19T17:52:01.116Z,41972.5
2019-05-19T17:53:01.323Z,41364.3
2019-05-19T17:54:01.110Z,40797.3
2019-05-19T17:55:06.103Z,40250.0
2019-05-19T17:56:01.108Z,39641.7
2019-05-19T17:57:01.100Z,38966.5
2019-05-19T17:58:01.243Z,38221.5
2019-05-19T17:59:14.518Z,37425.2
2019-05-19T18:00:06.103Z,36644.7
2019-05-19T18:01:01.098Z,35901.5
2019-05-19T18:02:01.098Z,35165.2
2019-05-19T18:03:01.310Z,34504.6
2019-05-19T18:04:01.101Z,33856.7
2019-05-19T18:05:01.102Z,33236.6
2019-05-19T18:06:01.129Z,32690.6
2019-05-19T18:07:01.101Z,32212.5
2019-05-19T18:08:01.439Z,31770.3
2019-05-19T18:09:01.104Z,31334.1
2019-05-19T18:10:01.102Z,30880.9
2019-05-19T18:11:01.102Z,30438.1
2019-05-19T18:12:01.101Z,30045.3
2019-05-19T18:13:01.315Z,29695.5
2019-05-19T18:14:01.099Z,29373.1
2019-05-19T18:15:03.334Z,29046.1
2019-05-19T18:16:01.101Z,28673.7
2019-05-19T18:18:01.329Z,28231.5
2019-05-19T18:19:01.089Z,27759.4
2019-05-19T18:20:01.086Z,27253.7
2019-05-19T18:21:01.134Z,26724.5
2019-05-19T18:22:01.086Z,26173.9
2019-05-19T18:23:01.279Z,25624.9
2019-05-19T18:24:01.116Z,25087.5
2019-05-19T18:25:01.093Z,24561.4
2019-05-19T18:26:01.092Z,24043.7
2019-05-19T18:27:01.101Z,23536.3
2019-05-19T18:28:01.274Z,23030.7
2019-05-19T18:29:01.092Z,22530.3
2019-05-19T18:30:01.590Z,22022.7
2019-05-19T18:31:01.096Z,21513.0
2019-05-19T18:32:01.092Z,21021.1
2019-05-19T18:33:01.239Z,20576.3
2019-05-19T18:34:01.096Z,20142.0
2019-05-19T18:35:01.101Z,19716.7
2019-05-19T18:36:01.098Z,19305.1
2019-05-19T18:37:01.101Z,18912.7
2019-05-19T18:38:01.270Z,18525.3
2019-05-19T18:39:01.093Z,18122.7
2019-05-19T18:40:01.104Z,17719.0
2019-05-19T18:41:01.093Z,17315.7
2019-05-19T18:42:01.094Z,16921.3
2019-05-19T18:43:01.255Z,16531.9
2019-05-19T18:44:01.095Z,16138.1
2019-05-19T18:45:01.097Z,15748.6
2019-05-19T18:46:01.108Z,15368.9
2019-05-19T18:47:01.133Z,14999.8
2019-05-19T18:48:01.317Z,14630.6
2019-05-19T18:49:02.762Z,14264.2
2019-05-19T18:50:01.101Z,13908.6
2019-05-19T18:51:01.109Z,13573.1
2019-05-19T18:52:01.096Z,13243.9
2019-05-19T18:53:01.260Z,12890.5
2019-05-19T18:54:01.108Z,12541.2
2019-05-19T18:55:01.106Z,12190.0
2019-05-19T18:56:01.106Z,11839.5
2019-05-19T18:57:01.139Z,11494.5
2019-05-19T18:58:01.260Z,11154.0
2019-05-19T19:00:01.087Z,10804.8
2019-05-19T19:01:01.088Z,10468.7
2019-05-19T19:02:01.094Z,10135.3
2019-05-19T19:03:01.103Z,9797.5
2019-05-19T19:04:01.287Z,9463.3
2019-05-19T19:05:01.123Z,9127.5
2019-05-19T19:06:01.087Z,8794.3
2019-05-19T19:07:01.091Z,8448.5
2019-05-19T19:08:01.087Z,8100.3
2019-05-19T19:09:01.245Z,7760.8
2019-05-19T19:10:01.091Z,7431.6
2019-05-19T19:11:01.094Z,7100.9
2019-05-19T19:12:01.090Z,6762.4
2019-05-19T19:13:01.130Z,6402.5
2019-05-19T19:14:01.304Z,6029.6
2019-05-19T19:15:02.093Z,5691.5
2019-05-19T19:16:01.094Z,5384.5
2019-05-19T19:17:01.095Z,5100.1
2019-05-19T19:18:01.096Z,4832.9
2019-05-19T19:19:01.309Z,4583.5
2019-05-19T19:20:01.112Z,4348.9
2019-05-19T19:21:01.117Z,4126.5
2019-05-19T19:22:01.113Z,3914.1
2019-05-19T19:23:01.099Z,3706.1
2019-05-19T19:24:01.251Z,3525.3
2019-05-19T19:25:01.094Z,3355.6
2019-05-19T19:26:01.127Z,3199.5
2019-05-19T19:27:01.095Z,3063.1
2019-05-19T19:28:01.153Z,2955.5
2019-05-19T19:29:01.274Z,2870.7
2019-05-19T19:30:03.826Z,2778.5
2019-05-19T19:31:01.131Z,2665.1
2019-05-19T19:32:01.095Z,2539.2
2019-05-19T19:33:01.104Z,2406.4
2019-05-19T19:34:01.257Z,2266.5
2019-05-19T19:35:01.095Z,2122.9
2019-05-19T19:36:01.097Z,1980.6
2019-05-19T19:37:01.097Z,1841.7
2019-05-19T19:38:01.115Z,1706.9
2019-05-19T19:39:01.248Z,1578.7
2019-05-19T19:40:01.108Z,1456.9
2019-05-19T19:41:06.108Z,1341.9
2019-05-19T19:42:01.148Z,1233.8
2019-05-19T19:43:01.166Z,1132.1
2019-05-19T19:44:01.308Z,1037.2
2019-05-19T19:45:01.099Z,948.7
2019-05-19T19:46:01.099Z,866.5
2019-05-19T19:47:01.101Z,790.3
2019-05-19T19:48:01.121Z,719.7
2019-05-19T19:49:01.242Z,654.5
2019-05-19T19:50:01.099Z,594.4
2019-05-19T19:51:01.096Z,539.1
2019-05-19T19:52:01.117Z,488.3
2019-05-19T19:53:01.132Z,441.6
2019-05-19T19:54:01.246Z,398.6
2019-05-19T19:55:01.096Z,359.1
2019-05-19T19:56:01.099Z,322.9
2019-05-19T19:57:01.096Z,289.8
2019-05-19T19:58:01.132Z,259.7
2019-05-19T19:59:01.258Z,232.3
2019-05-19T20:00:01.113Z,207.3
2019-05-19T20:01:01.100Z,184.7
2019-05-19T20:02:01.098Z,164.3
2019-05-19T20:03:01.130Z,146.0
2019-05-19T20:04:01.305Z,129.6
2019-05-19T20:05:01.102Z,115.0
2019-05-19T20:06:01.101Z,102.0
2019-05-19T20:07:01.108Z,90.4
2019-05-19T20:08:01.135Z,80.2
2019-05-19T20:09:01.341Z,71.1
2019-05-19T20:10:01.104Z,63.0
2019-05-19T20:11:01.110Z,55.9
2019-05-19T20:12:01.105Z,49.5
2019-05-19T20:13:01.139Z,44.0
2019-05-19T20:14:01.254Z,39.1
2019-05-19T20:15:01.103Z,34.7
2019-05-19T20:16:01.102Z,30.8
2019-05-19T20:17:01.103Z,27.4
2019-05-19T20:18:01.134Z,24.3
2019-05-19T20:19:01.313Z,21.6
2019-05-19T20:20:01.105Z,19.1
2019-05-19T20:21:01.102Z,17.0
2019-05-19T20:22:01.104Z,15.1
2019-05-19T20:23:01.153Z,13.4
2019-05-19T20:24:01.255Z,11.9
2019-05-19T20:25:01.107Z,10.6
2019-05-19T20:26:01.104Z,9.5
2019-05-19T20:28:01.108Z,8.4
2019-05-19T20:29:01.239Z,7.5
2019-05-19T20:30:01.088Z,6.6
2019-05-19T20:31:01.089Z,5.9
2019-05-19T20:32:01.097Z,5.2
2019-05-19T20:33:01.559Z,4.6
2019-05-19T20:34:01.244Z,4.1
2019-05-19T20:35:01.097Z,3.7
2019-05-19T20:36:01.096Z,3.3
2019-05-19T20:37:01.098Z,2.9
2019-05-19T20:38:01.094Z,2.5
2019-05-19T20:39:01.244Z,2.3
2019-05-19T20:40:01.101Z,2.0
2019-05-19T20:41:01.101Z,1.8
2019-05-19T20:42:01.104Z,1.6
2019-05-19T20:43:01.105Z,1.5
2019-05-19T20:44:01.248Z,1.3
2019-05-19T20:45:01.101Z,1.3
2019-05-19T20:46:01.098Z,1.2
2019-05-19T20:47:01.094Z,1.1
2019-05-19T20:48:01.095Z,1.0
2019-05-19T20:49:01.251Z,0.9
2019-05-19T20:50:01.099Z,0.8
2019-05-19T20:51:01.100Z,0.7
2019-05-19T20:53:01.163Z,0.6
2019-05-19T20:54:01.312Z,0.5
2019-05-19T20:56:01.100Z,0.4
2019-05-19T20:57:01.106Z,0.3
2019-05-19T20:59:01.255Z,0.2
2019-05-19T21:00:01.105Z,0.1
